createdAt,value
2022-08-21T07:52:25.882Z,2.65
2022-08-21T07:55:00.751Z,3.45
2022-08-21T07:57:29.966Z,5.22
2022-08-21T07:59:56.461Z,2.25
2022-08-21T08:02:27.580Z,5.20
2022-08-21T08:04:54.282Z,4.40
2022-08-21T08:07:20.805Z,1.88
2022-08-21T08:09:47.298Z,4.63
2022-08-21T08:12:13.852Z,3.15
2022-08-21T08:14:40.444Z,5.50
2022-08-21T08:17:07.005Z,5.40
2022-08-21T08:19:33.557Z,4.78
2022-08-21T08:22:00.085Z,3.72
2022-08-21T08:24:26.678Z,3.08
2022-08-21T08:26:54.963Z,4.93
2022-08-21T08:29:23.045Z,1.42
2022-08-21T08:31:49.564Z,2.13
2022-08-21T08:34:25.148Z,3.42
2022-08-21T08:36:52.459Z,2.40
2022-08-21T08:39:27.002Z,4.70
2022-08-21T08:42:32.336Z,2.97
2022-08-21T08:45:01.491Z,4.90
2022-08-21T08:47:29.932Z,2.87
2022-08-21T08:50:03.512Z,2.55
2022-08-21T08:52:37.574Z,2.17
2022-08-21T08:55:16.148Z,1.30
2022-08-21T08:57:50.253Z,3.55
2022-08-21T09:00:21.577Z,3.33
2022-08-21T09:02:49.378Z,4.97
2022-08-21T09:05:59.239Z,2.00
2022-08-21T09:08:51.163Z,1.88
2022-08-21T09:11:55.692Z,2.78
2022-08-21T09:14:44.691Z,2.45
2022-08-21T09:17:35.364Z,3.25
2022-08-21T09:20:07.967Z,2.45
2022-08-21T09:22:37.394Z,1.17
2022-08-21T09:25:13.233Z,2.83
2022-08-21T09:27:40.734Z,3.30
2022-08-21T09:30:08.439Z,2.65
2022-08-21T09:32:38.178Z,3.88
2022-08-21T09:35:23.428Z,4.00
2022-08-21T09:37:54.981Z,2.90
2022-08-21T09:40:36.781Z,2.10
2022-08-21T09:43:12.526Z,3.90
2022-08-21T09:45:40.713Z,3.17
2022-08-21T09:48:26.230Z,2.88
2022-08-21T09:50:54.718Z,2.58
2022-08-21T09:53:25.642Z,1.63
2022-08-21T09:56:13.014Z,2.33
2022-08-21T09:58:43.613Z,2.63
2022-08-21T10:01:15.898Z,2.30
2022-08-21T10:03:42.548Z,2.13
2022-08-21T10:06:11.705Z,1.88
2022-08-21T10:08:40.316Z,2.47
2022-08-21T10:11:16.080Z,1.63
2022-08-21T10:14:08.343Z,2.42
2022-08-21T10:17:02.665Z,2.00
2022-08-21T10:19:44.814Z,1.20
2022-08-21T10:22:36.232Z,1.88
2022-08-21T10:25:18.766Z,2.45
2022-08-21T10:27:45.194Z,2.08
2022-08-21T10:30:17.358Z,1.80
2022-08-21T10:33:12.587Z,1.80
2022-08-21T10:36:00.506Z,2.13
2022-08-21T10:38:58.746Z,2.72
2022-08-21T10:41:45.757Z,1.88
2022-08-21T10:44:30.429Z,1.08
2022-08-21T10:47:14.170Z,1.13
2022-08-21T10:49:43.304Z,1.48
2022-08-21T10:52:22.013Z,1.70
2022-08-21T10:55:07.565Z,1.33
2022-08-21T10:57:48.916Z,1.48
2022-08-21T11:00:22.870Z,1.27
2022-08-21T11:03:01.095Z,1.50
2022-08-21T11:05:43.425Z,1.95
2022-08-21T11:08:19.704Z,1.58
2022-08-21T11:11:08.693Z,1.88
2022-08-21T11:13:46.496Z,1.50
2022-08-21T11:16:40.686Z,1.25
2022-08-21T11:19:37.690Z,1.67
2022-08-21T11:22:29.312Z,1.92
2022-08-21T11:25:08.164Z,1.50
2022-08-21T11:27:46.734Z,1.83
2022-08-21T11:30:15.276Z,1.75
2022-08-21T11:32:47.512Z,2.05
2022-08-21T11:35:40.586Z,1.55
2022-08-21T11:38:23.012Z,1.85
2022-08-21T11:41:00.384Z,1.58
2022-08-21T11:43:36.714Z,1.63
2022-08-21T11:46:40.637Z,0.82
2022-08-21T11:49:40.885Z,1.38
2022-08-21T11:52:24.410Z,1.92
2022-08-21T11:55:00.837Z,1.95
2022-08-21T11:57:32.270Z,1.58
2022-08-21T12:00:17.544Z,1.17
2022-08-21T12:02:49.014Z,1.30
2022-08-21T12:05:55.572Z,1.67
2022-08-21T12:08:33.947Z,1.67
2022-08-21T12:11:11.555Z,1.77
2022-08-21T12:13:42.625Z,1.70
2022-08-21T12:16:40.141Z,1.77
2022-08-21T12:19:10.826Z,1.80
2022-08-21T12:21:49.509Z,1.65
2022-08-21T12:24:16.100Z,1.65
2022-08-21T12:26:53.643Z,1.48
2022-08-21T12:29:25.148Z,0.90
2022-08-21T12:31:58.581Z,1.73
2022-08-21T12:34:32.671Z,1.80
2022-08-21T12:37:22.469Z,1.40
2022-08-21T12:39:53.700Z,1.00
2022-08-21T12:42:38.532Z,1.10
2022-08-21T12:45:18.353Z,0.40
2022-08-21T12:47:49.196Z,1.90
2022-08-21T12:50:24.362Z,1.70
2022-08-21T12:53:18.413Z,2.55
2022-08-21T12:55:47.620Z,1.50
2022-08-21T12:58:22.064Z,1.67
2022-08-21T13:00:55.612Z,1.98
2022-08-21T13:03:23.375Z,1.73
2022-08-21T13:05:52.807Z,1.48
2022-08-21T13:08:21.947Z,1.55
2022-08-21T13:10:57.321Z,1.73
2022-08-21T13:13:28.424Z,1.52
2022-08-21T13:16:05.675Z,1.45
2022-08-21T13:18:36.084Z,1.60
2022-08-21T13:21:13.784Z,1.30
2022-08-21T13:23:41.063Z,1.30
2022-08-21T13:26:18.621Z,1.40
2022-08-21T13:28:48.343Z,1.30
2022-08-21T13:31:22.063Z,1.50
2022-08-21T13:33:50.258Z,1.83
2022-08-21T13:36:27.061Z,1.50
2022-08-21T13:38:55.295Z,1.70
2022-08-21T13:41:34.979Z,1.65
2022-08-21T13:44:19.991Z,1.85
2022-08-21T13:46:48.930Z,1.58
2022-08-21T13:49:19.502Z,2.10
2022-08-21T13:51:47.616Z,1.50
2022-08-21T13:54:24.333Z,2.15
2022-08-21T13:56:51.635Z,1.27
2022-08-21T13:59:26.639Z,1.58
2022-08-21T14:01:59.985Z,1.30
2022-08-21T14:04:44.060Z,1.60
2022-08-21T14:07:30.389Z,0.90
2022-08-21T14:09:57.009Z,1.40
2022-08-21T14:12:43.084Z,1.63
2022-08-21T14:15:11.004Z,1.55
2022-08-21T14:17:40.380Z,1.08
2022-08-21T14:20:08.670Z,1.00
2022-08-21T14:22:42.633Z,1.80
2022-08-21T14:25:14.657Z,1.93
2022-08-21T14:28:09.601Z,1.83
2022-08-21T14:30:39.475Z,1.70
2022-08-21T14:33:13.641Z,1.90
2022-08-21T14:35:40.775Z,1.45
2022-08-21T14:38:17.608Z,1.70
2022-08-21T14:40:47.767Z,1.70
2022-08-21T14:43:14.319Z,1.55
2022-08-21T14:45:41.691Z,1.80
2022-08-21T14:48:09.263Z,1.92
2022-08-21T14:50:36.253Z,1.70
2022-08-21T14:53:04.969Z,1.70
2022-08-21T14:55:58.031Z,1.70
2022-08-21T14:58:25.487Z,1.83
2022-08-21T15:00:57.256Z,1.80
2022-08-21T15:03:23.820Z,1.90
2022-08-21T15:05:50.867Z,1.98
2022-08-21T15:08:18.217Z,1.83
2022-08-21T15:11:10.038Z,2.03
2022-08-21T15:13:32.870Z,2.22
2022-08-21T15:15:59.800Z,1.45
2022-08-21T15:18:28.167Z,1.90
2022-08-21T15:20:54.911Z,2.15
2022-08-21T15:23:21.721Z,2.00
2022-08-21T15:25:49.726Z,2.30
2022-08-21T15:52:14.514Z,1.73
2022-08-21T15:54:41.488Z,2.10
2022-08-21T15:57:10.826Z,1.58
2022-08-21T15:59:44.288Z,1.95
2022-08-21T16:02:23.822Z,0.75
2022-08-21T16:04:50.393Z,2.30
2022-08-21T16:07:17.053Z,1.90
2022-08-21T16:09:44.041Z,2.38
2022-08-21T16:12:22.639Z,2.05
2022-08-21T16:14:50.733Z,1.75
2022-08-21T16:17:17.270Z,1.80
2022-08-21T16:19:43.940Z,1.95
2022-08-21T16:22:10.556Z,2.40
2022-08-21T16:24:37.094Z,1.98
2022-08-21T16:27:08.150Z,1.77
2022-08-21T16:29:37.130Z,2.90
2022-08-21T16:32:05.166Z,3.03
2022-08-21T16:34:32.006Z,1.98
2022-08-21T16:36:58.574Z,2.10
2022-08-21T16:39:25.498Z,3.47
2022-08-21T16:41:52.262Z,7.47
2022-08-21T16:44:21.536Z,4.85
2022-08-21T16:46:48.220Z,7.68
2022-08-21T16:49:14.798Z,2.60
2022-08-21T16:51:41.625Z,5.45
2022-08-21T16:54:08.157Z,2.10
2022-08-21T16:56:38.430Z,2.10
2022-08-21T16:59:06.736Z,2.80
2022-08-21T17:01:35.381Z,1.70
2022-08-21T17:04:03.377Z,1.85
2022-08-21T17:06:31.176Z,3.30
2022-08-21T17:08:58.713Z,2.45
2022-08-21T17:11:37.073Z,1.80
2022-08-21T17:14:12.237Z,1.42
2022-08-21T17:16:41.058Z,2.10
2022-08-21T17:19:08.327Z,1.52
2022-08-21T17:21:35.194Z,1.70
2022-08-21T17:24:01.710Z,2.42
2022-08-21T17:26:28.323Z,1.60
2022-08-21T17:28:55.226Z,1.70
2022-08-21T17:31:22.327Z,1.75
2022-08-21T17:33:52.945Z,1.60
2022-08-21T17:36:21.902Z,1.50
2022-08-21T17:38:48.601Z,2.17
2022-08-21T17:41:16.176Z,1.63
2022-08-21T17:43:43.207Z,2.00
2022-08-21T17:46:22.677Z,1.75
2022-08-21T17:48:49.274Z,1.80
2022-08-21T17:51:16.980Z,2.17
2022-08-21T17:53:44.996Z,1.77
2022-08-21T17:56:14.061Z,1.90
2022-08-21T17:58:43.053Z,1.80
2022-08-21T18:01:11.152Z,1.90
2022-08-21T18:03:38.218Z,1.70
2022-08-21T18:06:05.883Z,1.70
2022-08-21T18:08:33.209Z,1.45
2022-08-21T18:11:00.882Z,2.38
2022-08-21T18:13:34.155Z,2.00
2022-08-21T18:16:01.285Z,2.25
2022-08-21T18:18:36.826Z,1.80
2022-08-21T18:21:03.542Z,2.00
2022-08-21T18:23:37.561Z,1.92
2022-08-21T18:26:13.405Z,2.58
2022-08-21T18:28:40.810Z,2.00
2022-08-21T18:31:10.643Z,2.22
2022-08-21T18:33:38.390Z,2.58
2022-08-21T18:36:05.946Z,1.92
2022-08-21T18:38:33.075Z,2.22
2022-08-21T18:40:59.811Z,2.38
2022-08-21T18:43:26.995Z,2.42
2022-08-21T18:45:54.126Z,1.98
2022-08-21T18:48:20.919Z,2.75
2022-08-21T18:50:53.846Z,2.03
2022-08-21T18:53:27.487Z,2.25
2022-08-21T18:58:25.562Z,2.35
2022-08-21T19:00:52.697Z,3.00
2022-08-21T19:03:23.865Z,2.35
2022-08-21T19:05:52.619Z,2.47
2022-08-21T19:08:22.755Z,3.05
2022-08-21T19:10:51.412Z,3.10
2022-08-21T19:13:20.685Z,2.47
2022-08-21T19:15:52.722Z,3.25
2022-08-21T19:18:28.403Z,2.47
2022-08-21T19:20:56.074Z,2.17
2022-08-21T19:23:29.231Z,2.78
2022-08-21T19:26:00.884Z,2.50
2022-08-21T19:28:29.707Z,2.38
2022-08-21T19:31:12.617Z,2.90
2022-08-21T19:33:47.412Z,2.55
2022-08-21T19:36:18.018Z,2.27
2022-08-21T19:38:45.975Z,2.72
2022-08-21T19:41:15.596Z,3.10
2022-08-21T19:43:49.842Z,2.53
2022-08-21T19:46:24.474Z,2.80
2022-08-21T19:48:52.724Z,3.30
2022-08-21T19:51:19.310Z,3.42
2022-08-21T19:53:45.835Z,4.10
2022-08-21T19:56:18.004Z,3.10
2022-08-21T19:58:47.470Z,3.65
2022-08-21T20:01:18.502Z,4.30
2022-08-21T20:03:53.758Z,2.72
2022-08-21T20:06:20.894Z,3.25
2022-08-21T20:08:48.245Z,2.70
2022-08-21T20:11:26.113Z,3.35
2022-08-21T20:13:53.608Z,2.67
2022-08-21T20:16:21.513Z,2.80
2022-08-21T20:18:48.859Z,2.80
2022-08-21T20:21:16.141Z,2.97
2022-08-21T20:23:48.820Z,2.75
2022-08-21T20:26:16.676Z,2.90
2022-08-21T20:28:44.087Z,2.63
2022-08-21T20:31:11.055Z,3.15
2022-08-21T20:33:41.823Z,2.97
2022-08-21T20:36:09.425Z,3.00
2022-08-21T20:38:36.603Z,2.60
2022-08-21T20:41:04.137Z,3.00
2022-08-21T20:43:32.469Z,3.00
2022-08-21T20:46:00.742Z,2.83
2022-08-21T20:48:49.251Z,3.03
2022-08-21T20:51:31.755Z,2.72
2022-08-21T20:54:04.978Z,3.40
2022-08-21T20:56:48.214Z,3.05
2022-08-21T20:59:30.006Z,3.33
2022-08-21T21:02:20.915Z,3.15
2022-08-21T21:04:55.604Z,2.63
2022-08-21T21:07:31.317Z,3.42
2022-08-21T21:10:02.102Z,3.15
2022-08-21T21:12:35.193Z,3.28
2022-08-21T21:15:10.265Z,3.72
2022-08-21T21:17:45.826Z,4.18
2022-08-21T21:20:40.380Z,3.17
2022-08-21T21:23:27.014Z,3.42
2022-08-21T21:26:06.558Z,3.20
2022-08-21T21:28:48.349Z,3.33
2022-08-21T21:31:15.183Z,3.78
2022-08-21T21:33:42.677Z,4.13
2022-08-21T21:36:28.217Z,3.50
2022-08-21T21:39:10.459Z,3.60
2022-08-21T21:42:04.570Z,4.10
2022-08-21T21:44:50.146Z,4.35
2022-08-21T21:50:42.554Z,3.50
2022-08-21T21:53:36.854Z,3.80
2022-08-21T21:56:22.982Z,4.55
2022-08-21T21:59:08.407Z,3.67
2022-08-21T22:04:50.942Z,3.88
2022-08-21T22:07:27.236Z,4.30
2022-08-21T22:10:05.446Z,3.90
2022-08-21T22:12:49.784Z,4.03
2022-08-21T22:15:26.331Z,4.00
2022-08-21T22:18:00.655Z,4.28
2022-08-21T22:20:33.993Z,3.90
2022-08-21T22:23:05.001Z,4.63
2022-08-21T22:25:38.237Z,4.47
2022-08-21T22:28:10.553Z,3.65
2022-08-21T22:30:46.751Z,3.50
2022-08-21T22:33:25.509Z,4.13
2022-08-21T22:35:57.410Z,4.00
2022-08-21T22:38:27.657Z,3.88
2022-08-21T22:41:12.724Z,4.05
2022-08-21T22:43:58.208Z,3.88
2022-08-21T22:46:31.254Z,3.30
2022-08-21T22:49:20.826Z,3.17
2022-08-21T22:51:57.316Z,3.38
2022-08-21T22:54:34.988Z,3.53
2022-08-21T22:57:07.213Z,3.55
2022-08-21T22:59:41.685Z,3.65
2022-08-21T23:02:33.257Z,3.53
2022-08-21T23:05:04.717Z,3.85
2022-08-21T23:07:44.476Z,3.38
2022-08-21T23:10:30.007Z,3.80
2022-08-21T23:13:09.484Z,3.70
2022-08-21T23:16:06.224Z,3.55
2022-08-21T23:18:36.127Z,3.97
2022-08-21T23:21:15.883Z,3.50
2022-08-21T23:24:03.888Z,3.78
2022-08-21T23:26:56.128Z,3.55
2022-08-21T23:30:04.546Z,3.67
2022-08-21T23:33:02.707Z,3.78
2022-08-21T23:36:09.130Z,4.45
2022-08-21T23:41:18.786Z,4.13
2022-08-21T23:44:09.898Z,3.88
2022-08-21T23:46:57.192Z,3.25
2022-08-21T23:49:43.944Z,3.70
2022-08-21T23:52:33.140Z,3.30
2022-08-21T23:54:59.926Z,3.63
2022-08-21T23:57:51.088Z,3.40
